Time;durP1;ratioP1;P1;durP2;ratioP2;P2;SDS_P1;SDS_P2;PMS_P1;PMS_P2;Temp;Humidity;BMP_temperature;BMP_pressure;BME280_temperature;BME280_humidity;BME280_pressure;Samples;Min_cycle;Max_cycle;Signal;HPM_P1;HPM_P2
2023/07/16 00:02:39;;;;;;;2.13;1.90;;;;;;;21.79;55.33;99636.34;10342013;28;20265;-37
2023/07/16 00:07:41;;;;;;;2.60;1.70;;;;;;;21.54;54.87;99670.50;10345777;28;20239;-35
2023/07/16 00:12:43;;;;;;;1.90;1.65;;;;;;;20.67;57.02;99675.88;10350315;28;20492;-37
2023/07/16 00:17:45;;;;;;;2.03;1.60;;;;;;;21.57;55.30;99626.41;10354960;28;20422;-34
2023/07/16 00:22:47;;;;;;;1.70;1.60;;;;;;;21.88;54.08;99604.00;10351227;28;20341;-35
2023/07/16 00:27:49;;;;;;;2.85;1.60;;;;;;;20.64;56.13;99692.69;10353756;28;20283;-37
2023/07/16 00:32:51;;;;;;;1.60;1.50;;;;;;;19.94;56.70;99730.34;10355233;28;20229;-37
2023/07/16 00:37:53;;;;;;;1.77;1.60;;;;;;;19.34;57.21;99741.78;10353912;28;20248;-36
2023/07/16 00:42:54;;;;;;;1.70;1.50;;;;;;;21.45;53.22;99642.13;10352077;28;20229;-34
2023/07/16 00:47:57;;;;;;;2.90;1.77;;;;;;;20.80;54.11;99690.19;10351380;28;20230;-36
2023/07/16 00:53:00;;;;;;;1.90;1.50;;;;;;;21.26;52.72;99692.56;10354866;28;20261;-36
2023/07/16 00:58:05;;;;;;;1.83;1.65;;;;;;;20.78;54.94;99698.59;10351592;28;20232;-36
2023/07/16 01:03:12;;;;;;;1.60;1.48;;;;;;;19.83;56.56;99763.81;10351861;28;20233;-35
2023/07/16 01:08:26;;;;;;;3.22;1.60;;;;;;;19.29;57.93;99745.22;10346773;28;20249;-36
2023/07/16 01:13:28;;;;;;;3.45;1.50;;;;;;;19.58;55.32;99756.88;10353334;28;20252;-36
2023/07/16 01:18:30;;;;;;;1.92;1.40;;;;;;;20.87;53.00;99674.50;10344625;28;20674;-36
2023/07/16 01:24:15;;;;;;;3.70;1.75;;;;;;;21.42;51.63;99672.56;10367723;22;20245;-35
2023/07/16 01:29:17;;;;;;;1.88;1.60;;;;;;;19.69;53.76;99751.66;10369770;28;20233;-35
2023/07/16 01:34:20;;;;;;;2.80;1.83;;;;;;;21.00;51.31;99720.34;10378811;28;20578;-35
2023/07/16 01:39:22;;;;;;;2.00;1.80;;;;;;;20.58;52.23;99755.41;10345669;28;20218;-37
2023/07/16 01:44:24;;;;;;;2.85;1.48;;;;;;;19.54;54.96;99747.56;10351717;28;20232;-35
2023/07/16 01:49:26;;;;;;;1.60;1.50;;;;;;;19.98;53.58;99735.28;10347702;28;20619;-36
2023/07/16 01:54:27;;;;;;;1.85;1.50;;;;;;;19.60;54.05;99774.81;10350352;28;20265;-36
2023/07/16 01:59:29;;;;;;;3.58;1.60;;;;;;;19.66;54.13;99777.38;10342289;28;20670;-36
2023/07/16 02:04:31;;;;;;;1.40;1.30;;;;;;;19.91;53.09;99774.28;10347219;28;20256;-35
2023/07/16 02:09:35;;;;;;;1.75;1.40;;;;;;;20.38;53.04;99748.66;10346545;28;20226;-36
2023/07/16 02:14:37;;;;;;;1.40;1.30;;;;;;;19.78;54.22;99750.16;10353664;28;21005;-35
2023/07/16 02:19:38;;;;;;;1.42;1.33;;;;;;;19.81;53.74;99768.69;10348395;28;20233;-36
2023/07/16 02:24:40;;;;;;;2.63;1.75;;;;;;;20.73;52.13;99722.97;10355686;28;20237;-36
2023/07/16 02:29:42;;;;;;;3.95;1.73;;;;;;;19.50;54.67;99767.28;10338488;28;20616;-36
2023/07/16 02:34:44;;;;;;;2.70;1.70;;;;;;;19.53;54.05;99775.75;10345111;28;20230;-35
2023/07/16 02:39:48;;;;;;;2.03;1.83;;;;;;;19.15;54.80;99793.53;10346432;28;20261;-37
2023/07/16 02:44:50;;;;;;;1.83;1.50;;;;;;;18.93;55.06;99814.22;10341591;28;20727;-38
2023/07/16 02:49:52;;;;;;;3.40;1.70;;;;;;;19.17;54.14;99812.28;10344607;28;20237;-36
2023/07/16 02:54:54;;;;;;;2.20;1.70;;;;;;;20.91;51.84;99693.84;10341899;28;20229;-36
2023/07/16 02:59:56;;;;;;;2.77;1.67;;;;;;;19.59;53.50;99812.00;10346280;28;20236;-36
2023/07/16 03:04:58;;;;;;;3.70;2.10;;;;;;;19.73;53.49;99796.22;10341083;28;20238;-38
2023/07/16 03:10:00;;;;;;;2.00;1.80;;;;;;;20.13;52.61;99770.81;10344662;28;20327;-36
2023/07/16 03:15:02;;;;;;;1.90;1.80;;;;;;;19.91;52.35;99820.44;10346277;28;20237;-36
2023/07/16 03:20:05;;;;;;;2.20;1.73;;;;;;;20.46;51.10;99791.69;10349047;28;20607;-36
2023/07/16 03:25:07;;;;;;;1.55;1.45;;;;;;;19.94;51.28;99849.00;10348989;28;20233;-36
2023/07/16 03:30:09;;;;;;;2.20;1.65;;;;;;;20.11;52.27;99802.84;10343992;28;20240;-36
2023/07/16 03:35:11;;;;;;;2.22;2.03;;;;;;;20.10;52.14;99831.06;10340105;28;20256;-37
2023/07/16 03:40:24;;;;;;;3.47;1.80;;;;;;;21.05;49.87;99803.88;10342360;28;20710;-36
2023/07/16 03:45:25;;;;;;;2.85;1.98;;;;;;;20.36;51.33;99839.63;10347624;28;20733;-37
2023/07/16 03:50:27;;;;;;;3.08;1.83;;;;;;;20.22;51.42;99848.13;10357896;28;20233;-36
2023/07/16 03:55:30;;;;;;;1.88;1.52;;;;;;;19.33;53.40;99894.78;10353212;28;20785;-36
2023/07/16 04:00:32;;;;;;;2.40;1.73;;;;;;;21.04;50.30;99818.56;10355242;28;20225;-36
2023/07/16 04:05:34;;;;;;;2.25;1.95;;;;;;;19.95;52.11;99897.59;10347488;28;20248;-37
2023/07/16 04:10:36;;;;;;;4.03;1.77;;;;;;;20.65;51.08;99873.78;10359136;28;20229;-36
2023/07/16 04:15:38;;;;;;;2.03;1.67;;;;;;;21.23;50.49;99847.06;10343446;28;20230;-36
2023/07/16 04:20:39;;;;;;;2.65;1.80;;;;;;;20.09;52.24;99914.44;10375401;28;20236;-38
2023/07/16 04:25:41;;;;;;;2.70;1.80;;;;;;;20.49;51.54;99894.44;10374290;28;20237;-38
2023/07/16 04:30:43;;;;;;;2.10;1.90;;;;;;;19.97;53.43;99905.50;10348822;28;20621;-37
2023/07/16 04:35:45;;;;;;;2.13;2.00;;;;;;;20.02;53.25;99892.03;10347526;28;20230;-37
2023/07/16 04:40:47;;;;;;;2.57;1.97;;;;;;;20.40;53.07;99840.78;10350946;28;20663;-36
2023/07/16 04:45:49;;;;;;;3.00;1.93;;;;;;;20.58;52.64;99835.09;10350134;28;20241;-36
2023/07/16 04:50:52;;;;;;;3.30;1.90;;;;;;;21.88;50.27;99819.16;10351745;28;20237;-36
2023/07/16 04:55:54;;;;;;;3.33;2.00;;;;;;;19.80;54.09;99948.91;10348698;28;20842;-36
2023/07/16 05:00:55;;;;;;;2.43;2.20;;;;;;;20.30;52.98;99912.09;10346601;28;20241;-38
2023/07/16 05:05:57;;;;;;;2.03;1.77;;;;;;;20.42;53.46;99893.00;10345157;28;20280;-36
2023/07/16 05:10:59;;;;;;;6.28;1.80;;;;;;;20.37;53.19;99934.50;10345372;28;20299;-36
2023/07/16 05:16:01;;;;;;;1.90;1.80;;;;;;;20.54;53.47;99899.16;10348274;28;20759;-36
2023/07/16 05:21:03;;;;;;;1.80;1.70;;;;;;;20.17;53.85;99940.41;10348514;28;20287;-36
2023/07/16 05:26:05;;;;;;;1.50;1.40;;;;;;;20.06;54.79;99909.50;10349015;28;20699;-36
2023/07/16 05:31:07;;;;;;;2.27;1.60;;;;;;;21.22;51.91;99869.09;10349673;28;20241;-36
2023/07/16 05:36:08;;;;;;;2.03;1.73;;;;;;;20.63;52.79;99891.41;10347045;28;20225;-36
2023/07/16 05:41:10;;;;;;;2.43;1.63;;;;;;;20.28;53.31;99930.53;10346532;28;20328;-36
2023/07/16 05:46:12;;;;;;;2.60;2.20;;;;;;;20.88;52.95;99890.97;10345679;28;20239;-38
2023/07/16 05:51:15;;;;;;;4.07;2.08;;;;;;;19.33;54.78;99970.72;10353403;28;20983;-35
2023/07/16 05:56:16;;;;;;;2.30;1.90;;;;;;;20.42;52.94;99920.16;10350542;28;20671;-35
2023/07/16 06:01:18;;;;;;;2.43;1.60;;;;;;;20.26;52.72;99967.97;10346287;28;20244;-35
2023/07/16 06:06:20;;;;;;;2.45;1.63;;;;;;;21.70;50.98;99836.72;10349729;28;20741;-35
2023/07/16 06:11:22;;;;;;;2.17;1.63;;;;;;;21.07;51.84;99899.69;10352999;28;20603;-35
2023/07/16 06:16:24;;;;;;;2.37;1.60;;;;;;;21.04;51.76;99921.94;10350833;28;20280;-36
2023/07/16 06:21:26;;;;;;;3.28;1.85;;;;;;;20.23;53.04;99946.75;10355953;28;20325;-35
2023/07/16 06:26:28;;;;;;;4.05;1.80;;;;;;;20.53;52.59;99934.72;10340892;28;20734;-36
2023/07/16 06:31:29;;;;;;;1.80;1.70;;;;;;;21.99;49.64;99864.50;10346514;28;20851;-35
2023/07/16 06:36:31;;;;;;;1.90;1.70;;;;;;;21.37;50.26;99926.50;10343222;28;20237;-35
2023/07/16 06:41:33;;;;;;;1.63;1.52;;;;;;;20.41;51.93;99979.16;10345932;28;20742;-36
2023/07/16 06:46:35;;;;;;;1.83;1.67;;;;;;;21.69;49.13;99938.53;10338643;28;20808;-37
2023/07/16 06:51:37;;;;;;;4.15;2.00;;;;;;;21.84;49.24;99927.00;10343796;28;20238;-36
2023/07/16 06:56:39;;;;;;;4.55;1.52;;;;;;;21.66;48.24;99958.94;10338320;28;20280;-36
2023/07/16 07:01:41;;;;;;;3.85;1.65;;;;;;;21.53;49.15;99983.84;10341140;28;20233;-36
2023/07/16 07:06:42;;;;;;;4.65;1.48;;;;;;;22.09;47.95;99931.91;10342313;28;20241;-34
2023/07/16 07:11:44;;;;;;;2.67;1.67;;;;;;;22.30;47.62;99941.06;10346813;28;20226;-35
2023/07/16 07:16:46;;;;;;;1.98;1.70;;;;;;;21.51;47.93;100000.41;10340938;28;20237;-36
2023/07/16 07:21:48;;;;;;;2.85;1.70;;;;;;;20.27;50.52;100024.78;10352189;28;20229;-36
2023/07/16 07:26:50;;;;;;;3.45;2.08;;;;;;;22.52;46.85;99928.22;10387272;23;20248;-68
2023/07/16 07:31:52;;;;;;;2.15;1.70;;;;;;;21.16;48.50;100014.34;10383713;28;20238;-64
2023/07/16 07:36:54;;;;;;;4.18;1.90;;;;;;;20.83;48.10;99937.13;10317779;28;20230;-67
2023/07/16 07:41:56;;;;;;;2.85;1.75;;;;;;;21.45;46.43;99993.25;10341637;28;20703;-67
2023/07/16 07:46:58;;;;;;;3.60;1.77;;;;;;;20.71;47.07;100029.63;10346025;28;20229;-68
2023/07/16 07:52:00;;;;;;;3.80;1.60;;;;;;;21.11;46.47;100009.63;10346105;28;20240;-67
2023/07/16 07:57:03;;;;;;;3.92;1.92;;;;;;;20.65;47.97;100042.34;10343975;28;20233;-67
2023/07/16 08:02:07;;;;;;;6.65;2.17;;;;;;;20.59;47.14;100062.34;10355772;28;20672;-67
2023/07/16 08:07:08;;;;;;;7.22;2.13;;;;;;;21.74;47.03;99957.66;10355795;28;20770;-68
2023/07/16 08:12:10;;;;;;;2.25;1.60;;;;;;;21.94;45.64;99981.59;10355352;28;20249;-68
2023/07/16 08:17:15;;;;;;;4.25;2.10;;;;;;;22.05;45.10;99964.28;10347275;28;20234;-68
2023/07/16 08:22:17;;;;;;;2.70;1.73;;;;;;;20.07;46.29;100041.50;10348488;28;20241;-68
2023/07/16 08:27:19;;;;;;;4.45;1.95;;;;;;;19.86;46.74;100010.41;10347225;28;20264;-68
2023/07/16 08:32:21;;;;;;;2.92;1.70;;;;;;;22.15;44.09;99963.59;10352871;28;20229;-67
2023/07/16 08:37:23;;;;;;;4.28;1.95;;;;;;;21.50;44.52;100014.28;10342775;28;20233;-67
2023/07/16 08:42:25;;;;;;;4.78;2.22;;;;;;;21.81;44.96;99949.28;10349130;28;20229;-67
2023/07/16 08:47:27;;;;;;;2.95;2.05;;;;;;;20.42;45.07;100015.28;10354105;28;20287;-67
2023/07/16 08:52:29;;;;;;;3.38;2.35;;;;;;;20.68;44.81;100020.09;10344267;28;20229;-68
2023/07/16 08:57:31;;;;;;;6.05;2.67;;;;;;;21.79;42.12;99993.94;10358258;28;20237;-67
2023/07/16 09:02:33;;;;;;;5.78;2.47;;;;;;;22.47;41.81;99979.94;10345357;28;20238;-68
2023/07/16 09:07:37;;;;;;;4.05;2.42;;;;;;;22.51;42.02;99986.53;10351344;28;20262;-67
2023/07/16 09:12:43;;;;;;;3.70;2.38;;;;;;;21.77;43.77;100022.50;10354165;28;20761;-67
2023/07/16 09:17:49;;;;;;;4.82;2.40;;;;;;;22.42;42.18;99974.44;10356073;28;20284;-67
2023/07/16 09:22:55;;;;;;;5.78;2.17;;;;;;;21.79;43.07;100042.13;10358325;28;20247;-68
2023/07/16 09:28:02;;;;;;;4.22;1.90;;;;;;;23.07;41.45;99931.56;10346001;28;20331;-67
2023/07/16 09:33:12;;;;;;;4.88;2.38;;;;;;;22.77;42.26;99991.38;10345538;28;20267;-67
2023/07/16 09:38:14;;;;;;;4.00;2.20;;;;;;;22.79;42.03;99975.56;10337809;28;20320;-65
2023/07/16 09:43:16;;;;;;;3.03;1.90;;;;;;;22.69;40.55;99985.34;10349731;28;20240;-67
2023/07/16 09:48:18;;;;;;;5.78;1.98;;;;;;;22.28;41.18;100041.34;10345596;28;20240;-67
2023/07/16 09:53:21;;;;;;;5.20;2.25;;;;;;;22.15;40.74;100058.97;10343960;28;20229;-67
2023/07/16 09:58:24;;;;;;;4.38;2.20;;;;;;;21.58;41.92;99951.22;10345579;28;20225;-65
2023/07/16 10:03:26;;;;;;;6.22;2.55;;;;;;;22.92;41.15;99925.19;10345455;28;20240;-67
2023/07/16 10:08:34;;;;;;;2.70;1.70;;;;;;;22.41;40.47;99985.63;10342591;28;20788;-69
2023/07/16 10:13:37;;;;;;;6.40;2.53;;;;;;;22.84;40.14;100016.53;10343931;28;20336;-67
2023/07/16 10:18:50;;;;;;;6.88;2.08;;;;;;;23.42;40.86;99971.06;10351429;28;20233;-67
2023/07/16 10:24:03;;;;;;;3.92;2.13;;;;;;;22.60;40.46;100007.88;10342114;28;20242;-67
2023/07/16 10:29:04;;;;;;;3.33;2.38;;;;;;;22.94;41.68;99966.66;10355921;28;20229;-65
2023/07/16 10:34:07;;;;;;;7.72;2.08;;;;;;;23.85;39.93;99970.13;10352382;28;20320;-67
2023/07/16 10:39:09;;;;;;;3.10;1.83;;;;;;;22.65;41.15;100010.66;10344030;28;20225;-68
2023/07/16 10:44:15;;;;;;;4.45;2.05;;;;;;;23.29;40.05;99918.84;10349644;28;20763;-67
2023/07/16 10:49:27;;;;;;;4.75;2.22;;;;;;;23.44;40.12;99968.88;10343410;28;20242;-68
2023/07/16 10:54:28;;;;;;;3.35;1.92;;;;;;;22.75;40.49;99986.19;10336679;28;20247;-67
2023/07/16 10:59:30;;;;;;;7.00;2.42;;;;;;;23.02;40.59;99964.25;10352486;28;20880;-67
2023/07/16 11:06:23;;;;;;;3.65;1.88;;;;;;;20.46;43.75;99892.25;10358182;28;20854;-66
2023/07/16 11:11:30;;;;;;;3.70;2.08;;;;;;;21.56;43.52;99886.13;10300356;28;20230;-66
2023/07/16 11:16:36;;;;;;;2.35;1.80;;;;;;;21.22;43.27;99896.31;10328757;28;20229;-66
2023/07/16 11:21:38;;;;;;;3.80;1.80;;;;;;;21.45;43.07;99905.34;10341337;28;20256;-67
2023/07/16 11:26:40;;;;;;;6.30;2.83;;;;;;;22.27;42.67;99854.41;10340271;28;20329;-66
2023/07/16 11:31:42;;;;;;;4.50;2.05;;;;;;;22.96;41.99;99828.91;10342514;28;20234;-68
2023/07/16 11:36:44;;;;;;;6.03;2.42;;;;;;;22.45;41.74;99864.84;10345142;28;20840;-66
2023/07/16 11:41:58;;;;;;;4.05;2.17;;;;;;;21.97;42.41;99891.19;10344261;28;20725;-64
2023/07/16 11:47:01;;;;;;;5.13;2.25;;;;;;;22.23;41.27;99888.69;10340346;28;20582;-64
2023/07/16 11:52:03;;;;;;;3.13;1.98;;;;;;;21.91;41.55;99912.09;10336494;28;20236;-66
2023/07/16 11:57:06;;;;;;;4.32;1.80;;;;;;;22.46;41.50;99877.41;10345794;28;20221;-65
2023/07/16 12:02:08;;;;;;;5.05;2.40;;;;;;;22.61;41.20;99898.56;10337683;28;20238;-66
2023/07/16 12:07:10;;;;;;;5.57;2.20;;;;;;;22.87;41.53;99853.13;10338670;28;20405;-66
2023/07/16 12:12:12;;;;;;;4.55;2.38;;;;;;;22.56;41.05;99908.59;10344641;28;20692;-66
2023/07/16 12:17:13;;;;;;;5.93;2.55;;;;;;;22.42;41.18;99902.72;10316805;28;20222;-68
2023/07/16 12:22:17;;;;;;;4.32;1.92;;;;;;;22.67;40.47;99889.31;10314919;28;20237;-66
2023/07/16 12:27:20;;;;;;;2.67;1.75;;;;;;;24.17;39.10;99831.38;10312694;28;20668;-67
2023/07/16 12:32:22;;;;;;;2.80;1.98;;;;;;;23.07;39.08;99889.81;10314671;28;20304;-66
2023/07/16 12:37:23;;;;;;;3.05;1.80;;;;;;;23.60;39.18;99892.47;10307253;28;20400;-67
2023/07/16 12:42:25;;;;;;;3.42;1.80;;;;;;;23.01;39.61;99877.22;10315208;28;20229;-69
2023/07/16 12:47:27;;;;;;;3.40;2.17;;;;;;;23.90;38.80;99860.84;10309104;28;20307;-66
2023/07/16 12:52:29;;;;;;;3.20;1.98;;;;;;;24.59;37.36;99828.56;10311230;28;20424;-66
2023/07/16 12:57:32;;;;;;;4.43;2.00;;;;;;;23.50;38.48;99914.28;10312847;28;20233;-69
2023/07/16 13:02:33;;;;;;;3.85;2.03;;;;;;;23.80;37.27;99848.84;10304642;28;20239;-68
2023/07/16 13:07:35;;;;;;;6.65;2.50;;;;;;;24.31;37.16;99875.38;10314538;28;20312;-69
2023/07/16 13:12:40;;;;;;;4.50;1.90;;;;;;;23.02;38.15;99931.50;10309242;28;20245;-66
2023/07/16 13:17:41;;;;;;;4.00;2.15;;;;;;;24.85;37.07;99894.97;10312266;28;20225;-68
2023/07/16 13:22:43;;;;;;;3.55;1.92;;;;;;;24.33;36.86;99883.31;10314795;28;20658;-68
2023/07/16 13:27:45;;;;;;;2.78;1.98;;;;;;;23.80;36.88;99854.31;10308642;28;20707;-67
2023/07/16 13:32:48;;;;;;;4.80;2.50;;;;;;;24.67;37.29;99831.53;10302711;28;20225;-66
2023/07/16 13:37:50;;;;;;;5.75;3.00;;;;;;;23.07;39.51;99885.19;10306187;28;20316;-68
2023/07/16 13:42:53;;;;;;;2.70;2.03;;;;;;;24.01;37.82;99835.19;10303423;28;20457;-67
2023/07/16 13:47:55;;;;;;;5.13;2.70;;;;;;;25.42;35.69;99808.81;10307006;28;20292;-68
2023/07/16 13:53:01;;;;;;;2.97;1.90;;;;;;;24.17;36.59;99857.88;10310826;28;20226;-68
2023/07/16 13:58:03;;;;;;;3.03;2.38;;;;;;;23.86;37.01;99892.56;10308541;28;20269;-68
2023/07/16 14:03:04;;;;;;;2.55;1.90;;;;;;;24.03;36.35;99870.44;10308072;28;20242;-69
2023/07/16 14:08:06;;;;;;;4.13;2.58;;;;;;;24.70;36.10;99865.78;10312769;28;20237;-67
2023/07/16 14:13:09;;;;;;;3.67;1.92;;;;;;;23.27;39.19;99853.59;10307564;28;20238;-68
2023/07/16 14:18:11;;;;;;;3.95;1.67;;;;;;;23.87;37.88;99796.66;10312003;28;20804;-67
2023/07/16 14:23:13;;;;;;;4.47;2.10;;;;;;;24.27;39.05;99769.56;10309688;28;20232;-69
2023/07/16 14:28:14;;;;;;;2.67;1.58;;;;;;;25.42;37.93;99773.19;10306503;28;20226;-69
2023/07/16 14:33:16;;;;;;;4.90;1.92;;;;;;;25.89;35.43;99814.78;10306178;28;20280;-67
2023/07/16 14:38:18;;;;;;;3.67;1.98;;;;;;;24.37;37.14;99862.50;10305539;28;20234;-68
2023/07/16 14:43:20;;;;;;;2.78;1.85;;;;;;;25.91;35.16;99878.38;10309861;28;20304;-67
2023/07/16 14:48:22;;;;;;;4.38;2.35;;;;;;;25.81;35.74;99829.09;10309713;28;20298;-68
2023/07/16 14:53:24;;;;;;;4.55;2.30;;;;;;;25.54;36.50;99835.84;10309282;28;20618;-67
2023/07/16 14:58:26;;;;;;;3.83;2.10;;;;;;;24.91;35.92;99833.66;10309626;28;20264;-68
2023/07/16 15:03:27;;;;;;;3.95;1.88;;;;;;;25.88;36.08;99802.19;10311431;28;20238;-68
2023/07/16 15:08:29;;;;;;;7.97;2.45;;;;;;;24.80;37.21;99799.22;10311673;28;20222;-69
2023/07/16 15:13:31;;;;;;;3.63;2.28;;;;;;;25.53;36.16;99759.44;10312768;28;20225;-67
2023/07/16 15:18:33;;;;;;;3.65;2.00;;;;;;;25.00;36.44;99774.53;10305472;28;20213;-67
2023/07/16 15:23:35;;;;;;;3.30;2.17;;;;;;;24.52;36.83;99790.56;10312754;28;20229;-68
2023/07/16 15:28:38;;;;;;;3.38;1.85;;;;;;;25.65;35.82;99744.25;10309878;28;20423;-69
2023/07/16 15:33:39;;;;;;;4.47;2.17;;;;;;;24.63;36.80;99814.06;10311355;28;20384;-69
2023/07/16 15:38:41;;;;;;;3.65;1.73;;;;;;;25.01;36.21;99798.03;10310865;28;20693;-67
2023/07/16 15:43:44;;;;;;;3.55;2.00;;;;;;;25.66;36.29;99783.44;10309414;28;20782;-68
2023/07/16 15:48:46;;;;;;;4.55;2.08;;;;;;;24.89;37.04;99797.56;10305562;28;20626;-69
2023/07/16 15:53:53;;;;;;;5.55;2.00;;;;;;;25.44;36.92;99773.72;10317924;28;20332;-67
2023/07/16 15:58:55;;;;;;;5.25;2.20;;;;;;;25.50;37.03;99769.03;10313672;28;20229;-69
2023/07/16 16:03:57;;;;;;;3.85;2.03;;;;;;;24.52;37.72;99787.81;10313571;28;20249;-67
2023/07/16 16:08:58;;;;;;;5.05;2.15;;;;;;;25.24;36.77;99755.53;10314898;28;20238;-66
2023/07/16 16:14:00;;;;;;;3.22;1.80;;;;;;;24.54;37.56;99788.34;10316758;28;20234;-66
2023/07/16 16:19:03;;;;;;;2.13;1.75;;;;;;;24.59;37.41;99741.84;10313298;28;20234;-68
2023/07/16 16:24:05;;;;;;;3.28;1.98;;;;;;;25.28;37.01;99723.72;10316023;28;20238;-68
2023/07/16 16:29:07;;;;;;;3.45;2.08;;;;;;;25.18;36.89;99723.75;10314699;28;20285;-68
2023/07/16 16:34:08;;;;;;;4.30;2.10;;;;;;;25.87;37.02;99712.84;10316323;28;20241;-69
2023/07/16 16:39:10;;;;;;;3.75;2.00;;;;;;;26.26;36.37;99755.78;10311539;28;20244;-67
2023/07/16 16:44:12;;;;;;;5.55;2.20;;;;;;;26.62;35.82;99740.81;10318036;28;20238;-68
2023/07/16 16:49:13;;;;;;;3.28;2.05;;;;;;;25.78;35.89;99781.16;10315505;28;20232;-65
2023/07/16 16:54:15;;;;;;;4.70;1.90;;;;;;;26.29;35.56;99768.91;10315004;28;20888;-65
2023/07/16 16:59:17;;;;;;;4.15;1.80;;;;;;;26.58;35.44;99779.00;10313189;28;20226;-65
2023/07/16 17:04:19;;;;;;;3.30;1.75;;;;;;;25.66;36.58;99808.09;10310192;28;20238;-63
2023/07/16 17:09:21;;;;;;;4.03;2.10;;;;;;;26.02;36.64;99758.47;10313768;28;20230;-65
2023/07/16 17:14:22;;;;;;;3.83;1.80;;;;;;;25.95;36.21;99777.19;10315303;28;20249;-65
2023/07/16 17:19:24;;;;;;;4.15;2.05;;;;;;;25.79;36.07;99780.06;10314697;28;20233;-63
2023/07/16 17:24:26;;;;;;;2.80;1.80;;;;;;;26.65;35.60;99768.47;10314565;28;20670;-64
2023/07/16 17:29:27;;;;;;;6.22;2.35;;;;;;;26.07;35.50;99804.22;10309742;28;20647;-65
2023/07/16 17:34:33;;;;;;;2.50;1.83;;;;;;;25.77;36.34;99804.19;10312595;28;20584;-63
2023/07/16 17:39:36;;;;;;;3.00;2.00;;;;;;;26.56;35.28;99775.75;10306081;28;20296;-66
2023/07/16 17:44:37;;;;;;;3.80;2.30;;;;;;;25.30;36.80;99789.16;10306984;28;20245;-63
2023/07/16 17:49:39;;;;;;;3.80;2.28;;;;;;;25.94;35.77;99786.50;10315110;28;20233;-65
2023/07/16 17:54:42;;;;;;;4.63;1.88;;;;;;;26.11;36.43;99773.16;10308247;28;20336;-63
2023/07/16 17:59:44;;;;;;;4.90;2.13;;;;;;;25.92;36.77;99786.78;10313069;28;20234;-63
2023/07/16 18:04:46;;;;;;;4.40;2.25;;;;;;;25.92;36.80;99775.81;10308538;28;20246;-63
2023/07/16 18:09:53;;;;;;;3.75;2.15;;;;;;;26.18;36.85;99801.09;10311425;28;20237;-65
2023/07/16 18:14:55;;;;;;;2.95;1.80;;;;;;;26.57;36.85;99759.00;10313587;28;20272;-66
2023/07/16 18:19:56;;;;;;;2.90;1.98;;;;;;;24.49;38.79;99813.00;10306235;28;20253;-65
2023/07/16 18:24:59;;;;;;;2.60;1.83;;;;;;;26.16;38.00;99753.09;10309056;28;20249;-63
2023/07/16 18:30:07;;;;;;;2.45;1.60;;;;;;;26.07;37.49;99777.59;10309416;28;20649;-63
2023/07/16 18:35:09;;;;;;;3.97;1.83;;;;;;;26.95;36.50;99745.34;10309786;28;20234;-65
2023/07/16 18:40:12;;;;;;;4.25;1.85;;;;;;;26.55;36.94;99774.94;10311386;28;20284;-63
2023/07/16 18:45:14;;;;;;;2.47;1.90;;;;;;;26.54;37.58;99756.81;10310578;28;20740;-65
2023/07/16 18:50:15;;;;;;;5.38;1.90;;;;;;;26.99;37.05;99770.28;10312191;28;20234;-64
2023/07/16 18:55:19;;;;;;;3.97;1.85;;;;;;;26.66;37.32;99805.00;10307510;28;20569;-67
2023/07/16 19:00:22;;;;;;;6.35;2.08;;;;;;;26.27;37.75;99804.03;10309030;28;20784;-63
2023/07/16 19:05:24;;;;;;;3.80;2.30;;;;;;;26.01;38.00;99801.53;10307336;28;20237;-63
2023/07/16 19:10:25;;;;;;;2.50;1.70;;;;;;;27.01;37.14;99791.94;10311605;28;20644;-63
2023/07/16 19:15:27;;;;;;;3.40;2.20;;;;;;;26.79;37.27;99815.28;10309593;28;20234;-64
2023/07/16 19:20:29;;;;;;;2.63;2.00;;;;;;;27.11;36.69;99802.81;10303314;28;20234;-65
2023/07/16 19:25:31;;;;;;;2.58;1.95;;;;;;;26.95;37.16;99813.97;10311565;28;20238;-64
2023/07/16 19:30:32;;;;;;;3.28;2.03;;;;;;;26.57;38.33;99782.88;10317338;28;20226;-65
2023/07/16 19:35:34;;;;;;;2.33;1.70;;;;;;;25.70;39.43;99811.06;10315409;28;20270;-64
2023/07/16 19:40:36;;;;;;;3.33;2.10;;;;;;;26.44;38.60;99803.59;10316936;28;20703;-65
2023/07/16 19:45:38;;;;;;;3.53;1.95;;;;;;;26.52;38.25;99810.38;10326318;28;20248;-65
2023/07/16 19:50:46;;;;;;;3.95;2.05;;;;;;;26.62;38.05;99814.91;10319511;28;20746;-65
2023/07/16 19:55:49;;;;;;;3.80;2.30;;;;;;;26.33;38.51;99830.31;10324879;28;20236;-66
2023/07/16 20:00:52;;;;;;;3.60;2.28;;;;;;;25.39;39.58;99795.69;10317623;28;20316;-64
2023/07/16 20:05:53;;;;;;;3.97;2.20;;;;;;;24.78;40.32;99824.16;10319168;28;20257;-65
2023/07/16 20:10:55;;;;;;;2.97;2.00;;;;;;;23.89;41.23;99854.56;10301398;28;20234;-64
2023/07/16 20:15:57;;;;;;;6.63;2.30;;;;;;;23.20;44.06;99798.47;10322203;28;20233;-64
2023/07/16 20:20:59;;;;;;;4.05;2.50;;;;;;;23.40;44.18;99793.03;10318310;28;20321;-64
2023/07/16 20:26:01;;;;;;;4.80;2.38;;;;;;;24.58;42.21;99800.41;10310759;28;20239;-65
2023/07/16 20:31:05;;;;;;;3.40;2.50;;;;;;;24.34;42.75;99811.94;10315657;28;20716;-63
2023/07/16 20:36:07;;;;;;;4.25;2.20;;;;;;;23.79;42.86;99814.41;10317439;28;20723;-63
2023/07/16 20:41:10;;;;;;;6.15;2.50;;;;;;;23.36;41.62;99853.91;10314954;28;20277;-65
2023/07/16 20:46:12;;;;;;;3.45;2.60;;;;;;;24.11;40.77;99813.31;10291021;28;20904;-66
2023/07/16 20:51:14;;;;;;;6.22;2.70;;;;;;;23.33;40.73;99866.19;10319442;28;20230;-64
2023/07/16 20:56:16;;;;;;;6.13;3.00;;;;;;;23.38;40.43;99887.22;10317585;28;20388;-64
2023/07/16 21:01:17;;;;;;;6.18;2.65;;;;;;;25.05;40.18;99858.50;10317852;28;20349;-64
2023/07/16 21:06:21;;;;;;;5.28;2.35;;;;;;;24.65;41.86;99888.44;10314535;28;20245;-64
2023/07/16 21:11:23;;;;;;;5.38;2.28;;;;;;;24.73;42.22;99866.03;10316714;28;20230;-64
2023/07/16 21:16:24;;;;;;;3.40;2.40;;;;;;;24.81;42.05;99870.09;10309959;28;20234;-64
2023/07/16 21:21:26;;;;;;;3.70;2.22;;;;;;;24.17;42.57;99880.59;10309063;28;20766;-64
2023/07/16 21:26:28;;;;;;;3.45;2.30;;;;;;;22.43;45.41;99888.03;10313237;28;20240;-63
2023/07/16 21:31:30;;;;;;;5.40;2.30;;;;;;;23.50;43.61;99813.25;10315850;28;20238;-64
2023/07/16 21:36:32;;;;;;;4.22;2.75;;;;;;;23.38;42.62;99922.69;10312649;28;20601;-64
2023/07/16 21:41:33;;;;;;;3.10;2.15;;;;;;;24.32;41.61;99877.00;10306710;28;20240;-64
2023/07/16 21:46:35;;;;;;;5.70;2.53;;;;;;;22.25;43.61;99951.94;10309506;28;20293;-64
2023/07/16 21:51:37;;;;;;;3.92;2.35;;;;;;;24.76;40.50;99877.50;10313494;28;20242;-64
2023/07/16 21:56:39;;;;;;;2.85;2.22;;;;;;;24.19;41.77;99883.00;10315443;28;20233;-64
2023/07/16 22:01:40;;;;;;;4.47;2.38;;;;;;;23.47;43.06;99917.56;10310388;28;20909;-64
2023/07/16 22:06:42;;;;;;;4.63;2.70;;;;;;;21.86;45.88;99941.97;10309396;28;20869;-64
2023/07/16 22:11:44;;;;;;;4.35;2.50;;;;;;;22.96;43.57;99931.75;10305210;28;20280;-64
2023/07/16 22:16:46;;;;;;;4.65;2.60;;;;;;;22.84;44.20;99891.88;10311773;28;20336;-64
2023/07/16 22:21:48;;;;;;;2.38;2.13;;;;;;;23.62;42.68;99896.59;10300997;28;20614;-64
2023/07/16 22:26:50;;;;;;;3.08;2.38;;;;;;;22.43;44.38;99888.84;10308294;28;20245;-64
2023/07/16 22:31:51;;;;;;;3.80;2.92;;;;;;;22.65;44.19;99874.28;10312087;28;20238;-64
2023/07/16 22:36:53;;;;;;;5.07;2.25;;;;;;;22.94;43.61;99928.47;10313963;28;20296;-63
2023/07/16 22:41:55;;;;;;;4.25;2.55;;;;;;;22.60;44.35;99924.16;10311039;28;20663;-64
2023/07/16 22:46:57;;;;;;;3.15;2.50;;;;;;;21.22;46.38;99967.06;10306585;28;20230;-64
2023/07/16 22:51:58;;;;;;;5.57;2.60;;;;;;;22.51;44.72;99910.19;10311321;28;20332;-63
2023/07/16 22:57:00;;;;;;;3.30;2.58;;;;;;;23.52;43.04;99934.78;10309566;28;20680;-63
2023/07/16 23:02:02;;;;;;;5.38;2.67;;;;;;;23.42;43.33;99934.75;10313018;28;20237;-65
2023/07/16 23:07:03;;;;;;;4.57;2.72;;;;;;;23.50;43.33;99958.81;10313417;28;20321;-65
2023/07/16 23:12:05;;;;;;;6.53;2.65;;;;;;;23.14;43.82;99953.16;10311141;28;20238;-63
2023/07/16 23:17:07;;;;;;;3.42;2.30;;;;;;;22.59;44.66;99979.81;10305889;28;20734;-65
2023/07/16 23:22:09;;;;;;;6.13;2.70;;;;;;;21.99;45.58;99975.41;10302976;28;20327;-63
2023/07/16 23:27:11;;;;;;;4.55;2.65;;;;;;;21.94;46.59;99925.22;10307234;28;20235;-63